Terminal Aerodrome Forecast
Issued by NWS

Home | Current Version | Previous Version | Text Only | Print | Product List | Glossary On
Versions: 1 2 3 4 5 6 7 8 9 10 11 12 13 14 15
000
FTUS44 KLZK 011100 AAA
TAFLLQ
TAF AMD
KLLQ 011148Z 0112/0212 18010G18KT 6SM -RA SCT007 OVC025
      WS020/20045KT
      TEMPO 0112/0116 4SM RA BR BKN007
     FM011600 22012G20KT P6SM OVC020
      TEMPO 0116/0120 5SM -RA BR SCT025 BKN050
     FM012100 27012G20KT P6SM VCSH SCT030 BKN060
     FM020300 30009G16KT P6SM SCT060 SCT250=

USA.gov is the U.S. government's official web portal to all federal, state and local government web resources and services.